Time;durP1;ratioP1;P1;durP2;ratioP2;P2;SDS_P1;SDS_P2;PMS_P1;PMS_P2;Temp;Humidity;BMP_temperature;BMP_pressure;BME280_temperature;BME280_humidity;BME280_pressure;Samples;Min_cycle;Max_cycle;Signal;HPM_P1;HPM_P2
2022/07/24 00:00:36;;;;;;;;;;;;;;;22.65;49.26;100881.00;4986893;28;6993;-76
2022/07/24 00:03:01;;;;;;;;;;;;;;;22.63;49.12;100886.22;5005309;28;7097;-76
2022/07/24 00:05:27;;;;;;;;;;;;;;;22.60;49.06;100887.09;5014659;28;7216;-76
2022/07/24 00:07:53;;;;;;;;;;;;;;;22.57;49.28;100884.44;4998103;28;6930;-76
2022/07/24 00:10:18;;;;;;;;;;;;;;;22.55;49.26;100886.19;5002198;28;6922;-76
2022/07/24 00:12:44;;;;;;;;;;;;;;;22.53;49.17;100877.47;5006921;28;6767;-76
2022/07/24 00:15:10;;;;;;;;;;;;;;;22.49;49.11;100875.69;5008908;28;6964;-76
2022/07/24 00:17:36;;;;;;;;;;;;;;;22.48;49.19;100872.19;4993113;28;7194;-76
2022/07/24 00:20:04;;;;;;;;;;;;;;;22.47;49.44;100880.00;4994197;28;6768;-76
2022/07/24 00:22:30;;;;;;;;;;;;;;;22.45;49.06;100877.41;4994677;28;6839;-76
2022/07/24 00:24:56;;;;;;;;;;;;;;;22.44;49.34;100879.97;4999994;28;6982;-77
2022/07/24 00:27:21;;;;;;;;;;;;;;;22.41;49.54;100869.53;4988440;28;7753;-77
2022/07/24 00:29:47;;;;;;;;;;;;;;;22.40;49.50;100872.97;5008829;28;8485;-76
2022/07/24 00:32:13;;;;;;;;;;;;;;;22.39;49.61;100876.47;5014904;28;7018;-76
2022/07/24 00:34:39;;;;;;;;;;;;;;;22.36;49.44;100876.44;5022655;28;7559;-76
2022/07/24 00:37:04;;;;;;;;;;;;;;;22.33;49.68;100870.34;4994861;28;6843;-76
2022/07/24 00:39:30;;;;;;;;;;;;;;;22.30;49.70;100867.69;5029592;28;8433;-76
2022/07/24 00:41:56;;;;;;;;;;;;;;;22.28;49.55;100868.56;4992879;28;6993;-76
2022/07/24 00:44:22;;;;;;;;;;;;;;;22.25;49.61;100874.63;5014817;28;7998;-76
2022/07/24 00:46:48;;;;;;;;;;;;;;;22.20;49.75;100872.00;5015831;28;6935;-76
2022/07/24 00:49:18;;;;;;;;;;;;;;;22.16;49.92;100875.47;4995588;28;6792;-76
2022/07/24 00:51:48;;;;;;;;;;;;;;;22.11;49.66;100881.47;5026396;28;7021;-76
2022/07/24 00:54:16;;;;;;;;;;;;;;;22.05;49.93;100877.09;4998563;28;7244;-76
2022/07/24 00:56:45;;;;;;;;;;;;;;;22.00;50.06;100877.03;5027585;28;7319;-76
2022/07/24 00:59:11;;;;;;;;;;;;;;;21.97;50.28;100876.13;5009352;28;8929;-76
2022/07/24 01:01:37;;;;;;;;;;;;;;;21.95;50.53;100876.16;4992666;28;6987;-77
2022/07/24 01:04:03;;;;;;;;;;;;;;;21.93;50.15;100872.66;4995517;28;6791;-76
2022/07/24 01:06:29;;;;;;;;;;;;;;;21.90;50.56;100870.00;5041466;28;6946;-76
2022/07/24 01:08:55;;;;;;;;;;;;;;;21.85;50.58;100874.31;5012352;28;6947;-76
2022/07/24 01:11:22;;;;;;;;;;;;;;;21.81;50.64;100862.09;5008748;28;6784;-76
2022/07/24 01:13:50;;;;;;;;;;;;;;;21.77;50.39;100863.78;4993895;28;7192;-76
2022/07/24 01:16:16;;;;;;;;;;;;;;;21.74;50.56;100867.28;4993955;28;8857;-76
2022/07/24 01:18:42;;;;;;;;;;;;;;;21.72;50.77;100862.91;4999249;28;7853;-76
2022/07/24 01:21:08;;;;;;;;;;;;;;;21.70;50.75;100865.47;5028345;28;10020;-76
2022/07/24 01:23:34;;;;;;;;;;;;;;;21.67;50.87;100864.53;4994187;28;7431;-76
2022/07/24 01:26:00;;;;;;;;;;;;;;;21.64;50.82;100861.06;5006388;28;6918;-76
2022/07/24 01:28:26;;;;;;;;;;;;;;;21.63;51.11;100863.63;5010500;28;8228;-76
2022/07/24 01:30:52;;;;;;;;;;;;;;;21.62;51.02;100867.09;4999027;28;6865;-76
2022/07/24 01:33:18;;;;;;;;;;;;;;;21.62;51.04;100862.78;5026322;28;6954;-76
2022/07/24 01:35:43;;;;;;;;;;;;;;;21.62;51.12;100862.78;4997541;28;7202;-76
2022/07/24 01:38:12;;;;;;;;;;;;;;;21.61;51.42;100861.03;4989993;28;6783;-76
2022/07/24 01:40:39;;;;;;;;;;;;;;;21.62;51.04;100867.09;5001733;28;6868;-76
2022/07/24 01:43:05;;;;;;;;;;;;;;;21.61;51.33;100861.03;5002583;28;7169;-76
2022/07/24 01:45:31;;;;;;;;;;;;;;;21.62;51.13;100860.16;5024114;28;6972;-76
2022/07/24 01:47:57;;;;;;;;;;;;;;;21.62;51.06;100861.88;5026892;28;6768;-76
2022/07/24 01:50:23;;;;;;;;;;;;;;;21.62;51.05;100856.66;4992181;28;7030;-76
2022/07/24 01:52:48;;;;;;;;;;;;;;;21.62;50.82;100851.47;5012132;28;7337;-76
2022/07/24 01:55:14;;;;;;;;;;;;;;;21.60;50.95;100856.69;5027645;28;8516;-76
2022/07/24 01:57:40;;;;;;;;;;;;;;;21.57;51.01;100855.78;4994709;28;6923;-76
2022/07/24 02:00:12;;;;;;;;;;;;;;;21.54;50.78;100850.53;4982362;28;7286;-77
2022/07/24 02:02:38;;;;;;;;;;;;;;;21.53;51.12;100849.66;5007718;28;7267;-76
2022/07/24 02:05:05;;;;;;;;;;;;;;;21.50;51.34;100847.88;5023381;28;6995;-76
2022/07/24 02:07:31;;;;;;;;;;;;;;;21.46;51.23;100838.28;5003581;28;8933;-76
2022/07/24 02:09:56;;;;;;;;;;;;;;;21.42;51.36;100843.47;4994357;28;6909;-76
2022/07/24 02:12:22;;;;;;;;;;;;;;;21.36;51.32;100847.72;4993591;28;6776;-76
2022/07/24 02:14:48;;;;;;;;;;;;;;;21.34;51.50;100845.97;4988751;28;7263;-76
2022/07/24 02:17:13;;;;;;;;;;;;;;;21.30;51.61;100847.69;4991001;28;7301;-76
2022/07/24 02:19:39;;;;;;;;;;;;;;;21.26;51.53;100838.06;5000771;28;6919;-76
2022/07/24 02:22:04;;;;;;;;;;;;;;;21.20;51.67;100844.09;4992375;28;7579;-76
2022/07/24 02:24:30;;;;;;;;;;;;;;;21.17;52.01;100844.06;5010072;28;7200;-76
2022/07/24 02:26:56;;;;;;;;;;;;;;;21.12;52.08;100845.72;4991160;28;6939;-76
2022/07/24 02:29:21;;;;;;;;;;;;;;;21.08;52.22;100834.41;4994240;28;7154;-76
2022/07/24 02:31:47;;;;;;;;;;;;;;;21.05;51.96;100838.69;4991147;28;6848;-76
2022/07/24 02:34:12;;;;;;;;;;;;;;;21.03;52.31;100837.81;4995729;28;7040;-77
2022/07/24 02:36:38;;;;;;;;;;;;;;;21.01;52.53;100842.13;4992085;28;6940;-76
2022/07/24 02:39:04;;;;;;;;;;;;;;;20.97;52.86;100837.75;5010388;28;6971;-77
2022/07/24 02:41:30;;;;;;;;;;;;;;;20.95;52.96;100838.59;4998106;28;7260;-76
2022/07/24 02:43:55;;;;;;;;;;;;;;;20.95;52.54;100835.13;5016558;28;6974;-76
2022/07/24 02:46:21;;;;;;;;;;;;;;;20.95;52.94;100835.97;5012778;28;8417;-76
2022/07/24 02:48:47;;;;;;;;;;;;;;;20.97;52.63;100837.75;5018617;28;6933;-76
2022/07/24 02:51:13;;;;;;;;;;;;;;;20.97;52.76;100837.75;4996226;28;6946;-76
2022/07/24 02:53:38;;;;;;;;;;;;;;;20.95;53.00;100830.75;5025026;28;6784;-76
2022/07/24 02:56:04;;;;;;;;;;;;;;;20.97;52.97;100827.34;5043828;28;8344;-76
2022/07/24 02:58:33;;;;;;;;;;;;;;;20.99;52.85;100829.06;5024361;28;7188;-77
2022/07/24 03:00:58;;;;;;;;;;;;;;;21.04;52.82;100827.41;4994319;28;6826;-76
2022/07/24 03:03:24;;;;;;;;;;;;;;;21.12;52.83;100829.25;4997123;28;6776;-76
2022/07/24 03:05:50;;;;;;;;;;;;;;;21.18;52.80;100821.47;4982532;28;6851;-76
2022/07/24 03:08:15;;;;;;;;;;;;;;;21.27;52.46;100823.31;4993981;28;7374;-76
2022/07/24 03:10:41;;;;;;;;;;;;;;;21.35;52.17;100829.50;4999153;28;6863;-77
2022/07/24 03:13:07;;;;;;;;;;;;;;;21.42;52.01;100826.06;4991513;28;7106;-76
2022/07/24 03:15:32;;;;;;;;;;;;;;;21.51;51.94;100828.75;4998645;28;7639;-76
2022/07/24 03:17:58;;;;;;;;;;;;;;;21.56;51.48;100825.34;4990597;28;6775;-76
2022/07/24 03:20:27;;;;;;;;;;;;;;;21.61;51.57;100828.84;5007440;28;7024;-76
2022/07/24 03:22:53;;;;;;;;;;;;;;;21.61;51.59;100824.53;5023277;28;7240;-76
2022/07/24 03:25:19;;;;;;;;;;;;;;;21.65;51.57;100841.06;4984434;28;7988;-76
2022/07/24 03:27:47;;;;;;;;;;;;;;;21.67;51.47;100844.59;5029364;28;7942;-80
2022/07/24 03:30:15;;;;;;;;;;;;;;;21.67;51.34;100847.19;4994696;28;6817;-76
2022/07/24 03:32:40;;;;;;;;;;;;;;;21.68;51.18;100842.84;5021342;28;11891;-77
2022/07/24 03:35:07;;;;;;;;;;;;;;;21.69;51.53;100844.63;5010156;28;8707;-77
2022/07/24 03:37:33;;;;;;;;;;;;;;;21.69;51.40;100842.00;4989804;28;7031;-77
2022/07/24 03:39:59;;;;;;;;;;;;;;;21.69;51.56;100852.44;5028122;28;7011;-76
2022/07/24 03:42:24;;;;;;;;;;;;;;;21.70;51.28;100846.38;5008040;28;6942;-75
2022/07/24 03:44:50;;;;;;;;;;;;;;;21.70;51.51;100854.19;4993411;28;7133;-76
2022/07/24 03:47:16;;;;;;;;;;;;;;;21.71;51.11;100850.72;4994515;28;6780;-76
2022/07/24 03:49:42;;;;;;;;;;;;;;;21.69;51.03;100850.69;4995071;28;7241;-76
2022/07/24 03:52:07;;;;;;;;;;;;;;;21.68;51.39;100854.16;4990685;28;6775;-76
2022/07/24 03:54:33;;;;;;;;;;;;;;;21.68;51.41;100858.50;5020434;28;8492;-76
2022/07/24 03:56:59;;;;;;;;;;;;;;;21.64;51.41;100855.84;5011952;28;8009;-76
2022/07/24 03:59:24;;;;;;;;;;;;;;;21.63;51.40;100850.59;4989508;28;6783;-76
2022/07/24 04:01:50;;;;;;;;;;;;;;;21.63;51.35;100850.59;5004947;28;6986;-76
2022/07/24 04:04:16;;;;;;;;;;;;;;;21.64;51.77;100849.75;4992110;28;7028;-76
2022/07/24 04:06:41;;;;;;;;;;;;;;;21.64;51.37;100852.38;4994726;28;7176;-76
2022/07/24 04:09:07;;;;;;;;;;;;;;;21.66;51.63;100853.25;4995834;28;7403;-76
2022/07/24 04:11:33;;;;;;;;;;;;;;;21.69;51.87;100857.66;5032528;28;7155;-76
2022/07/24 04:13:59;;;;;;;;;;;;;;;21.74;51.48;100858.56;4997623;28;7146;-76
2022/07/24 04:16:26;;;;;;;;;;;;;;;21.77;51.63;100855.97;5019261;28;6944;-76
2022/07/24 04:18:51;;;;;;;;;;;;;;;21.83;51.33;100857.78;4998535;28;7194;-76
2022/07/24 04:21:17;;;;;;;;;;;;;;;21.89;51.14;100871.75;4999073;28;6768;-76
2022/07/24 04:23:43;;;;;;;;;;;;;;;21.94;51.36;100869.19;4992685;28;7118;-74
2022/07/24 04:26:09;;;;;;;;;;;;;;;21.98;51.15;100863.13;5028994;28;6772;-75
2022/07/24 04:28:35;;;;;;;;;;;;;;;22.04;50.92;100859.69;4988404;28;6795;-74
2022/07/24 04:31:01;;;;;;;;;;;;;;;22.13;51.13;100853.69;4989008;28;7229;-75
2022/07/24 04:33:26;;;;;;;;;;;;;;;22.23;51.22;100855.47;5004927;28;7225;-75
2022/07/24 04:35:52;;;;;;;;;;;;;;;22.33;50.81;100854.69;4975505;28;6986;-75
2022/07/24 04:38:18;;;;;;;;;;;;;;;22.44;50.83;100849.50;4993235;28;6780;-74
2022/07/24 04:40:44;;;;;;;;;;;;;;;22.55;50.50;100847.00;5007681;28;7253;-75
2022/07/24 04:43:09;;;;;;;;;;;;;;;22.69;50.66;100846.19;5025573;28;7095;-75
2022/07/24 04:45:35;;;;;;;;;;;;;;;22.81;50.75;100843.66;5023711;28;7240;-75
2022/07/24 04:48:02;;;;;;;;;;;;;;;22.97;50.46;100847.19;4994108;28;6853;-76
2022/07/24 04:50:27;;;;;;;;;;;;;;;23.14;50.24;100839.41;5028389;28;8507;-74
2022/07/24 04:52:53;;;;;;;;;;;;;;;23.32;50.17;100835.13;5016476;28;6952;-75
2022/07/24 04:55:19;;;;;;;;;;;;;;;23.50;49.84;100836.03;5039589;28;8018;-75
2022/07/24 04:57:44;;;;;;;;;;;;;;;23.70;49.78;100836.91;4993037;28;6929;-75
2022/07/24 05:00:13;;;;;;;;;;;;;;;23.91;49.31;100845.63;5022554;28;7014;-74
2022/07/24 05:02:39;;;;;;;;;;;;;;;24.11;49.32;100829.94;5012705;28;13039;-76
2022/07/24 05:05:06;;;;;;;;;;;;;;;24.31;49.11;100836.91;5016958;28;7598;-76
2022/07/24 05:07:32;;;;;;;;;;;;;;;24.46;48.29;100842.97;4998434;28;6994;-74
2022/07/24 05:09:58;;;;;;;;;;;;;;;24.62;48.69;100844.66;5012219;28;7047;-75
2022/07/24 05:12:25;;;;;;;;;;;;;;;24.79;47.47;100847.25;5012987;28;6958;-75
2022/07/24 05:14:51;;;;;;;;;;;;;;;24.96;47.97;100848.94;5024544;28;7294;-75
2022/07/24 05:17:17;;;;;;;;;;;;;;;25.12;47.21;100848.88;4994855;28;6768;-75
2022/07/24 05:19:42;;;;;;;;;;;;;;;25.27;47.66;100848.75;4996705;28;8301;-75
2022/07/24 05:22:08;;;;;;;;;;;;;;;25.44;47.78;100848.66;4996458;28;6995;-76
2022/07/24 05:24:34;;;;;;;;;;;;;;;25.66;47.28;100848.53;4992710;28;6948;-75
2022/07/24 05:26:59;;;;;;;;;;;;;;;25.88;47.74;100854.50;5029472;28;6788;-75
2022/07/24 05:29:25;;;;;;;;;;;;;;;26.12;47.54;100849.00;4993253;28;7242;-76
2022/07/24 05:31:54;;;;;;;;;;;;;;;26.31;46.46;100855.00;5021939;28;7460;-76
2022/07/24 05:34:23;;;;;;;;;;;;;;;26.45;46.00;100863.59;5012845;28;8126;-76
2022/07/24 05:36:49;;;;;;;;;;;;;;;26.54;45.62;100860.00;4983535;28;7425;-77
2022/07/24 05:39:15;;;;;;;;;;;;;;;26.64;45.16;100860.75;5010763;28;6972;-76
2022/07/24 05:41:42;;;;;;;;;;;;;;;26.72;45.30;100861.53;5013222;28;6947;-76
2022/07/24 05:44:07;;;;;;;;;;;;;;;26.85;44.99;100857.00;5022159;28;6953;-76
2022/07/24 05:46:33;;;;;;;;;;;;;;;26.98;44.81;100863.00;4987051;28;7291;-76
2022/07/24 05:48:59;;;;;;;;;;;;;;;27.10;44.67;100866.34;4978417;28;7034;-74
2022/07/24 05:51:25;;;;;;;;;;;;;;;27.22;44.54;100860.91;5010218;28;6807;-76
2022/07/24 05:53:51;;;;;;;;;;;;;;;27.36;44.26;100862.50;4980247;28;7165;-76
2022/07/24 05:56:17;;;;;;;;;;;;;;;27.39;43.93;100859.81;4991811;28;7376;-76
2022/07/24 05:58:42;;;;;;;;;;;;;;;27.41;43.52;100861.53;5000476;28;7748;-75
2022/07/24 06:01:08;;;;;;;;;;;;;;;27.36;43.20;100858.09;4987786;28;6772;-75
2022/07/24 06:03:34;;;;;;;;;;;;;;;27.26;43.54;100862.63;5008009;28;6833;-75
2022/07/24 06:05:59;;;;;;;;;;;;;;;27.15;43.40;100859.28;5008049;28;6938;-75
2022/07/24 06:08:25;;;;;;;;;;;;;;;27.02;43.75;100859.44;4996012;28;7309;-75
2022/07/24 06:10:50;;;;;;;;;;;;;;;26.91;43.93;100861.34;4997305;28;6948;-76
2022/07/24 06:13:16;;;;;;;;;;;;;;;26.78;43.94;100849.22;4991676;28;7266;-75
2022/07/24 06:15:42;;;;;;;;;;;;;;;26.69;43.58;100855.44;5023956;28;8391;-75
2022/07/24 06:18:07;;;;;;;;;;;;;;;26.58;44.38;100852.97;4988418;28;7219;-75
2022/07/24 06:20:33;;;;;;;;;;;;;;;26.52;44.43;100856.53;4981203;28;6986;-75
2022/07/24 06:22:59;;;;;;;;;;;;;;;26.47;44.32;100860.94;5022453;28;6788;-75
2022/07/24 06:25:24;;;;;;;;;;;;;;;26.42;44.89;100858.38;4989239;28;6811;-76
2022/07/24 06:27:53;;;;;;;;;;;;;;;26.39;45.03;100850.53;4998430;28;7232;-75
2022/07/24 06:30:25;;;;;;;;;;;;;;;26.38;45.36;100859.31;5023694;28;6820;-76
2022/07/24 06:32:57;;;;;;;;;;;;;;;26.37;45.34;100848.81;5019496;28;6970;-75
2022/07/24 06:35:27;;;;;;;;;;;;;;;26.37;45.26;100849.69;4997630;28;7314;-75
2022/07/24 06:37:55;;;;;;;;;;;;;;;26.36;45.20;100847.06;4997665;28;6841;-74
2022/07/24 06:40:21;;;;;;;;;;;;;;;26.36;45.59;100853.19;5007701;28;7342;-75
2022/07/24 06:42:48;;;;;;;;;;;;;;;26.41;45.65;100846.13;5007166;28;7278;-76
2022/07/24 06:45:15;;;;;;;;;;;;;;;26.44;45.69;100846.09;5009139;28;6979;-74
2022/07/24 06:47:41;;;;;;;;;;;;;;;26.49;45.80;100848.66;5021581;28;6934;-76
2022/07/24 06:50:09;;;;;;;;;;;;;;;26.53;45.40;100849.50;4996264;28;7856;-74
2022/07/24 06:52:35;;;;;;;;;;;;;;;26.57;45.41;100852.06;5019971;28;7013;-74
2022/07/24 06:55:00;;;;;;;;;;;;;;;26.62;45.45;100847.66;5022216;28;6977;-74
2022/07/24 06:57:26;;;;;;;;;;;;;;;26.68;45.35;100849.34;4988868;28;6855;-75
2022/07/24 06:59:53;;;;;;;;;;;;;;;26.75;45.30;100853.63;4999672;28;6787;-74
2022/07/24 07:02:21;;;;;;;;;;;;;;;26.81;45.30;100850.06;4971320;28;7368;-74
2022/07/24 07:04:49;;;;;;;;;;;;;;;26.88;44.94;100850.88;5010568;28;6986;-74
2022/07/24 07:07:15;;;;;;;;;;;;;;;26.97;44.93;100850.75;5024144;28;6792;-74
2022/07/24 07:09:44;;;;;;;;;;;;;;;27.09;45.06;100859.38;5024723;28;6791;-74
2022/07/24 07:12:10;;;;;;;;;;;;;;;27.24;44.47;100864.41;4987677;28;9617;-74
2022/07/24 07:14:36;;;;;;;;;;;;;;;27.47;44.41;100865.84;4991680;28;6932;-74
2022/07/24 07:17:02;;;;;;;;;;;;;;;27.74;43.91;100863.69;5006638;28;8071;-74
2022/07/24 07:19:27;;;;;;;;;;;;;;;28.06;43.84;100864.91;5020446;28;6767;-75
2022/07/24 07:21:53;;;;;;;;;;;;;;;28.40;43.08;100859.06;4979753;28;6969;-75
2022/07/24 07:24:19;;;;;;;;;;;;;;;28.76;42.79;100857.47;5021607;28;6883;-74
2022/07/24 07:26:44;;;;;;;;;;;;;;;29.09;41.82;100866.44;4991728;28;8669;-74
2022/07/24 07:29:10;;;;;;;;;;;;;;;29.41;41.97;100863.09;5006347;28;7138;-74
2022/07/24 07:31:36;;;;;;;;;;;;;;;29.69;40.78;100858.06;4988553;28;8023;-74
2022/07/24 07:34:01;;;;;;;;;;;;;;;29.94;40.03;100862.75;4994420;28;8278;-74
2022/07/24 07:36:27;;;;;;;;;;;;;;;30.21;39.97;100860.28;5000172;28;6864;-74
2022/07/24 07:38:53;;;;;;;;;;;;;;;30.43;39.72;100857.06;4993296;28;6893;-74
2022/07/24 07:41:19;;;;;;;;;;;;;;;30.65;38.90;100861.78;4992904;28;6980;-74
2022/07/24 07:43:49;;;;;;;;;;;;;;;30.86;38.39;100853.19;4981032;28;6856;-74
2022/07/24 07:46:15;;;;;;;;;;;;;;;31.03;38.35;100843.91;5015160;28;6990;-74
2022/07/24 07:48:42;;;;;;;;;;;;;;;31.23;37.58;100851.22;5001446;28;8499;-74
2022/07/24 07:51:09;;;;;;;;;;;;;;;31.41;37.95;100847.16;5000416;28;6800;-76
2022/07/24 07:53:35;;;;;;;;;;;;;;;31.60;37.21;100849.19;5014568;28;6843;-75
2022/07/24 07:56:01;;;;;;;;;;;;;;;31.76;36.78;100843.34;5033779;28;8521;-74
2022/07/24 07:58:27;;;;;;;;;;;;;;;31.92;36.81;100839.31;4995188;28;7374;-75
2022/07/24 08:00:54;;;;;;;;;;;;;;;32.06;36.68;100833.50;5011680;28;7238;-75
2022/07/24 08:03:19;;;;;;;;;;;;;;;32.20;36.28;100830.38;5027045;28;7522;-75
2022/07/24 08:05:45;;;;;;;;;;;;;;;32.31;35.74;100834.41;4992066;28;6780;-75
2022/07/24 08:08:11;;;;;;;;;;;;;;;32.40;35.44;100840.28;5011231;28;6951;-76
2022/07/24 08:10:37;;;;;;;;;;;;;;;32.53;35.42;100845.13;4991027;28;7218;-74
2022/07/24 08:13:02;;;;;;;;;;;;;;;32.62;35.16;100834.19;5019442;28;6800;-74
2022/07/24 08:15:28;;;;;;;;;;;;;;;32.71;34.92;100840.91;4991533;28;6918;-75
2022/07/24 08:17:58;;;;;;;;;;;;;;;32.77;34.75;100827.41;5032758;28;7207;-75
2022/07/24 08:20:26;;;;;;;;;;;;;;;32.89;34.85;100838.47;4974706;28;7362;-75
2022/07/24 08:22:52;;;;;;;;;;;;;;;33.01;34.55;100831.84;5006828;28;7241;-74
2022/07/24 08:25:20;;;;;;;;;;;;;;;33.10;34.12;100828.84;4975563;28;7253;-75
2022/07/24 08:27:46;;;;;;;;;;;;;;;33.22;34.08;100830.09;5012895;28;7066;-74
2022/07/24 08:30:13;;;;;;;;;;;;;;;33.34;34.02;100828.75;5011793;28;6971;-75
2022/07/24 08:32:38;;;;;;;;;;;;;;;33.51;33.45;100828.06;4992582;28;11196;-74
2022/07/24 08:35:05;;;;;;;;;;;;;;;33.67;33.26;100828.31;5003115;28;6990;-75
2022/07/24 08:37:39;;;;;;;;;;;;;;;33.87;33.09;100827.44;5012403;28;6981;-75
2022/07/24 08:40:06;;;;;;;;;;;;;;;34.16;32.57;100819.16;5029366;28;7226;-76
2022/07/24 08:42:33;;;;;;;;;;;;;;;34.48;31.85;100815.03;4999532;28;6804;-74
2022/07/24 08:44:59;;;;;;;;;;;;;;;34.82;31.31;100811.75;5049912;28;7053;-74
2022/07/24 08:47:32;;;;;;;;;;;;;;;35.13;30.63;100812.94;5029884;28;7793;-74
2022/07/24 08:49:59;;;;;;;;;;;;;;;35.46;30.75;100806.88;5000822;28;7178;-75
2022/07/24 08:52:26;;;;;;;;;;;;;;;35.84;30.32;100812.06;5029611;28;6886;-74
2022/07/24 08:54:53;;;;;;;;;;;;;;;36.29;30.14;100800.84;4995916;28;7068;-75
2022/07/24 08:57:19;;;;;;;;;;;;;;;36.75;29.44;100796.59;5026308;28;6959;-74
2022/07/24 08:59:44;;;;;;;;;;;;;;;37.12;28.82;100799.00;4999411;28;6855;-75
2022/07/24 09:02:10;;;;;;;;;;;;;;;37.50;28.56;100788.72;4994924;28;7020;-75
2022/07/24 09:04:47;;;;;;;;;;;;;;;37.93;27.54;100784.41;4996118;28;7101;-74
2022/07/24 09:07:24;;;;;;;;;;;;;;;38.18;27.44;100788.25;4999111;28;6861;-76
2022/07/24 09:10:10;;;;;;;;;;;;;;;38.28;27.01;100781.38;5007887;28;7323;-75
2022/07/24 09:12:42;;;;;;;;;;;;;;;38.45;26.72;100784.81;5002488;28;7002;-75
2022/07/24 09:15:15;;;;;;;;;;;;;;;38.58;26.18;100783.06;5002383;28;7142;-75
2022/07/24 09:17:57;;;;;;;;;;;;;;;38.64;26.44;100783.63;4989494;28;7060;-75
2022/07/24 09:20:27;;;;;;;;;;;;;;;38.76;26.42;100780.16;4986881;28;6968;-73
2022/07/24 09:22:53;;;;;;;;;;;;;;;39.06;26.14;100767.50;5002071;28;7196;-75
2022/07/24 09:25:26;;;;;;;;;;;;;;;39.47;25.62;100779.09;5022132;28;7215;-75
2022/07/24 09:28:00;;;;;;;;;;;;;;;39.80;25.34;100781.25;5001103;28;6979;-74
2022/07/24 09:30:37;;;;;;;;;;;;;;;40.11;24.56;100775.56;5013441;28;6988;-74
2022/07/24 09:33:12;;;;;;;;;;;;;;;40.12;24.21;100772.75;5009356;28;7942;-75
2022/07/24 09:35:47;;;;;;;;;;;;;;;40.07;24.36;100771.38;4984593;28;7289;-76
2022/07/24 09:38:17;;;;;;;;;;;;;;;40.16;24.28;100773.41;5032337;28;7252;-76
2022/07/24 09:40:46;;;;;;;;;;;;;;;40.30;23.92;100774.25;4987172;28;7172;-75
2022/07/24 09:43:23;;;;;;;;;;;;;;;40.38;23.82;100770.06;5000952;28;7127;-76
2022/07/24 09:45:58;;;;;;;;;;;;;;;40.42;23.65;100762.63;5036432;28;6989;-76
2022/07/24 09:48:34;;;;;;;;;;;;;;;40.54;23.55;100760.88;5019381;28;7044;-75
2022/07/24 09:51:09;;;;;;;;;;;;;;;40.64;23.53;100758.34;5011066;28;7390;-75
2022/07/24 09:53:35;;;;;;;;;;;;;;;40.88;23.80;100765.59;4983735;28;7417;-76
2022/07/24 09:56:15;;;;;;;;;;;;;;;41.10;23.10;100760.28;5015054;28;6944;-76
2022/07/24 09:58:54;;;;;;;;;;;;;;;41.24;22.43;100750.38;4994711;28;7194;-76
2022/07/24 10:01:24;;;;;;;;;;;;;;;41.41;22.69;100754.44;4986329;28;6784;-77
2022/07/24 10:03:53;;;;;;;;;;;;;;;41.59;22.66;100751.28;4988015;28;7173;-77
2022/07/24 10:06:25;;;;;;;;;;;;;;;41.81;22.26;100745.06;5003393;28;7193;-76
2022/07/24 10:08:52;;;;;;;;;;;;;;;42.04;22.00;100750.44;5011852;28;6895;-75
2022/07/24 10:11:19;;;;;;;;;;;;;;;42.25;21.38;100747.00;5019308;28;7326;-76
2022/07/24 10:13:46;;;;;;;;;;;;;;;42.36;21.69;100746.97;5017383;28;6863;-76
2022/07/24 10:16:11;;;;;;;;;;;;;;;42.57;21.12;100749.78;4998889;28;6958;-75
2022/07/24 10:19:14;;;;;;;;;;;;;;;42.67;20.71;100741.75;4996833;28;6779;-75
2022/07/24 10:21:54;;;;;;;;;;;;;;;42.26;20.37;100746.91;4994189;28;6808;-75
2022/07/24 10:24:53;;;;;;;;;;;;;;;41.88;21.03;100743.59;5005537;28;7002;-76
2022/07/24 10:27:51;;;;;;;;;;;;;;;42.00;20.73;100751.66;5025011;28;7233;-75
2022/07/24 10:30:18;;;;;;;;;;;;;;;42.17;20.92;100745.78;4995893;28;7203;-76
2022/07/24 10:32:46;;;;;;;;;;;;;;;42.38;20.75;100742.31;5004210;28;7377;-74
2022/07/24 10:35:27;;;;;;;;;;;;;;;42.53;20.76;100739.38;4997903;28;6987;-74
2022/07/24 10:38:12;;;;;;;;;;;;;;;42.59;20.36;100733.47;4989042;28;7210;-74
2022/07/24 10:41:12;;;;;;;;;;;;;;;42.64;20.72;100730.38;4994474;28;7238;-75
2022/07/24 10:43:38;;;;;;;;;;;;;;;42.67;20.66;100728.28;4999412;28;7900;-74
2022/07/24 10:46:03;;;;;;;;;;;;;;;42.84;20.66;100731.41;5007190;28;8007;-75
2022/07/24 10:48:32;;;;;;;;;;;;;;;43.01;20.43;100736.25;4992881;28;6771;-74
2022/07/24 10:51:05;;;;;;;;;;;;;;;43.21;20.02;100735.53;4995176;28;7048;-75
2022/07/24 10:53:49;;;;;;;;;;;;;;;43.46;19.83;100730.75;4993315;28;6876;-76
2022/07/24 10:56:25;;;;;;;;;;;;;;;43.59;19.82;100719.72;5042287;28;6991;-75
2022/07/24 10:59:08;;;;;;;;;;;;;;;43.75;19.58;100714.66;4997523;28;6823;-75
2022/07/24 11:01:47;;;;;;;;;;;;;;;44.02;19.67;100715.91;4995308;28;6892;-75
2022/07/24 11:04:19;;;;;;;;;;;;;;;44.34;19.02;100706.78;5012532;28;7177;-75
2022/07/24 11:07:00;;;;;;;;;;;;;;;44.57;18.83;100716.44;5029146;28;7458;-77
2022/07/24 11:09:28;;;;;;;;;;;;;;;44.82;18.63;100706.94;5015608;28;7022;-76
2022/07/24 11:11:53;;;;;;;;;;;;;;;44.89;18.18;100708.06;5003926;28;7384;-76
2022/07/24 11:14:23;;;;;;;;;;;;;;;44.99;18.20;100707.22;5030537;28;7161;-75
2022/07/24 11:16:50;;;;;;;;;;;;;;;44.93;17.94;100709.50;5000475;28;7230;-75
2022/07/24 11:19:15;;;;;;;;;;;;;;;44.84;18.21;100699.53;4997362;28;7274;-76
2022/07/24 11:21:47;;;;;;;;;;;;;;;44.93;18.16;100695.09;5028277;28;6924;-76
2022/07/24 11:24:16;;;;;;;;;;;;;;;45.11;17.93;100700.66;4996410;28;6981;-76
2022/07/24 11:26:59;;;;;;;;;;;;;;;45.24;17.84;100694.06;4997214;28;7903;-76
2022/07/24 11:29:37;;;;;;;;;;;;;;;45.20;17.70;100693.50;4997981;28;7231;-75
2022/07/24 11:32:07;;;;;;;;;;;;;;;45.19;18.12;100691.81;5023242;28;7190;-76
2022/07/24 11:34:35;;;;;;;;;;;;;;;45.31;17.80;100692.50;4995213;28;6835;-76
2022/07/24 11:37:02;;;;;;;;;;;;;;;45.48;17.83;100690.88;5025048;28;6863;-75
2022/07/24 11:39:37;;;;;;;;;;;;;;;45.67;17.61;100680.97;5001641;28;6954;-75
2022/07/24 11:42:10;;;;;;;;;;;;;;;45.81;17.43;100685.06;5026004;28;7137;-75
2022/07/24 11:44:48;;;;;;;;;;;;;;;45.80;17.13;100686.91;5015957;28;7180;-75
2022/07/24 11:47:24;;;;;;;;;;;;;;;45.76;17.10;100672.78;4999654;28;6807;-75
2022/07/24 11:50:00;;;;;;;;;;;;;;;45.90;17.17;100671.44;5015423;28;7010;-74
2022/07/24 11:52:33;;;;;;;;;;;;;;;46.07;17.31;100668.91;5025999;28;6803;-74
2022/07/24 11:55:16;;;;;;;;;;;;;;;46.16;16.82;100661.72;5026148;28;6995;-75
2022/07/24 11:57:46;;;;;;;;;;;;;;;46.02;16.61;100660.38;5014022;28;7302;-75
2022/07/24 12:00:19;;;;;;;;;;;;;;;45.97;16.75;100668.13;4995918;28;6812;-75
2022/07/24 12:02:48;;;;;;;;;;;;;;;45.96;16.95;100675.41;5024056;28;11313;-76
2022/07/24 12:05:25;;;;;;;;;;;;;;;45.99;17.01;100661.56;5027883;28;7003;-76
2022/07/24 12:07:51;;;;;;;;;;;;;;;46.02;16.78;100663.97;5031400;28;7177;-77
2022/07/24 12:10:22;;;;;;;;;;;;;;;46.04;16.67;100658.41;5012645;28;8354;-76
2022/07/24 12:12:51;;;;;;;;;;;;;;;45.96;16.89;100655.63;5002848;28;7710;-77
2022/07/24 12:15:17;;;;;;;;;;;;;;;45.89;16.84;100650.81;5041774;28;7136;-76
2022/07/24 12:18:01;;;;;;;;;;;;;;;45.84;16.77;100653.13;5021971;28;6985;-76
2022/07/24 12:20:33;;;;;;;;;;;;;;;45.78;16.70;100645.59;4994486;28;6983;-76
2022/07/24 12:23:03;;;;;;;;;;;;;;;45.87;16.63;100649.25;5029691;28;7215;-76
2022/07/24 12:25:30;;;;;;;;;;;;;;;45.88;16.50;100640.16;5018248;28;7133;-76
2022/07/24 12:28:09;;;;;;;;;;;;;;;45.80;16.44;100627.34;4996216;28;7185;-75
2022/07/24 12:30:50;;;;;;;;;;;;;;;45.79;16.55;100631.06;4999485;28;6800;-75
2022/07/24 12:33:17;;;;;;;;;;;;;;;45.75;16.93;100630.47;4997745;28;6804;-76
2022/07/24 12:36:11;;;;;;;;;;;;;;;45.71;16.61;100629.09;4997668;28;6979;-75
2022/07/24 12:38:51;;;;;;;;;;;;;;;45.56;16.70;100623.34;4983084;28;7030;-76
2022/07/24 12:41:21;;;;;;;;;;;;;;;45.54;16.76;100619.09;5027444;28;7354;-77
2022/07/24 12:43:51;;;;;;;;;;;;;;;45.52;16.78;100616.53;4997464;28;6867;-76
2022/07/24 12:46:22;;;;;;;;;;;;;;;45.55;16.67;100605.41;5000910;28;6976;-76
2022/07/24 12:49:09;;;;;;;;;;;;;;;45.58;16.83;100598.84;5016100;28;6990;-77
2022/07/24 12:52:02;;;;;;;;;;;;;;;45.68;16.71;100583.38;4996069;28;7218;-77